Clemons, New York
Current Conditions -  °F | °C
As of 8:53 AM on Tuesday 27 Jan 2015 (Local Time) from KGFL Reporting Station
Overcast Overcast  
Wind Chill: -1°   Ceiling: 6000
Heat Index: 13°   Visibility: 10mi
Dew Point: -1°   Wind: 12mph
Humidity: 54%   Direction: 40°NE
Pressure: 29.85"   Gusts: NA
Location:  43.64°N, 73.45°W
Report Text: KGFL 271353Z AUTO 04010KT 10SM BKN060 OVC075 M11/M18 A2985 RMK AO2 SLP120 T11061183
Loading
Personal Weather Stations






























Interactive Weather Map New forecast layout! Learn more

10-Day Weather Forecast

Advertisements
Track Severe Weather on mobile